createdAt,value
2019-03-03T00:00:03.057Z,17.80
2019-03-03T00:02:37.849Z,14.77
2019-03-03T00:05:11.912Z,21.00
2019-03-03T00:07:45.044Z,12.57
2019-03-03T00:10:17.984Z,10.67
2019-03-03T00:12:50.888Z,13.30
2019-03-03T00:15:23.671Z,19.90
2019-03-03T00:17:56.659Z,14.03
2019-03-03T00:20:29.516Z,20.67
2019-03-03T00:23:02.427Z,17.00
2019-03-03T00:25:35.307Z,17.00
2019-03-03T00:28:08.098Z,16.20
2019-03-03T00:30:41.123Z,13.80
2019-03-03T00:33:14.159Z,13.97
2019-03-03T00:35:47.212Z,11.83
2019-03-03T00:38:42.368Z,15.73
2019-03-03T00:41:33.717Z,13.57
2019-03-03T00:44:22.854Z,16.27
2019-03-03T00:47:33.415Z,17.63
2019-03-03T00:50:17.259Z,13.40
2019-03-03T00:53:09.782Z,16.67
2019-03-03T00:56:00.167Z,12.70
2019-03-03T00:58:40.989Z,12.93
2019-03-03T01:01:25.159Z,14.30
2019-03-03T01:04:06.327Z,13.63
2019-03-03T01:06:56.800Z,16.53
2019-03-03T01:09:47.832Z,13.07
2019-03-03T01:12:38.894Z,19.17
2019-03-03T01:15:26.950Z,14.90
2019-03-03T01:18:26.114Z,13.70
2019-03-03T01:21:15.105Z,13.23
2019-03-03T01:24:13.359Z,13.57
2019-03-03T01:26:46.365Z,13.30
2019-03-03T01:29:19.128Z,14.70
2019-03-03T01:31:52.123Z,11.77
2019-03-03T01:34:24.913Z,11.77
2019-03-03T01:36:57.815Z,13.87
2019-03-03T01:39:30.859Z,15.03
2019-03-03T01:42:03.741Z,15.20
2019-03-03T01:44:36.724Z,13.13
2019-03-03T01:47:09.692Z,17.30
2019-03-03T01:49:42.536Z,17.30
2019-03-03T01:52:15.439Z,17.30
2019-03-03T01:54:48.679Z,19.63
2019-03-03T01:57:21.513Z,16.83
2019-03-03T01:59:54.374Z,19.67
2019-03-03T02:02:27.334Z,9.90
2019-03-03T02:05:00.578Z,10.60
2019-03-03T02:07:33.364Z,10.50
2019-03-03T02:10:07.340Z,10.33
2019-03-03T02:12:40.294Z,13.90
2019-03-03T02:15:13.998Z,13.00
2019-03-03T02:17:46.854Z,11.83
2019-03-03T02:20:19.730Z,17.63
2019-03-03T02:22:52.524Z,13.63
2019-03-03T02:25:25.463Z,14.17
2019-03-03T02:27:58.560Z,14.37
2019-03-03T02:30:31.768Z,17.30
2019-03-03T02:33:04.721Z,12.30
2019-03-03T02:35:37.709Z,12.27
2019-03-03T02:38:10.756Z,17.63
2019-03-03T02:40:44.176Z,15.53
2019-03-03T02:43:17.025Z,19.03
2019-03-03T02:45:50.290Z,16.00
2019-03-03T02:48:23.135Z,11.70
2019-03-03T02:50:55.955Z,9.70
2019-03-03T02:53:28.838Z,20.97
2019-03-03T02:56:02.090Z,15.43
2019-03-03T02:58:35.275Z,13.00
2019-03-03T03:01:30.946Z,14.67
2019-03-03T03:04:03.821Z,12.33
2019-03-03T03:07:00.375Z,20.40
2019-03-03T03:09:45.165Z,15.77
2019-03-03T03:12:37.456Z,14.03
2019-03-03T03:15:35.714Z,15.00
2019-03-03T03:18:36.938Z,18.33
2019-03-03T03:21:28.957Z,18.77
2019-03-03T03:24:20.182Z,13.10
2019-03-03T03:27:02.619Z,19.10
2019-03-03T03:29:58.999Z,15.03
2019-03-03T03:32:57.634Z,13.67
2019-03-03T03:35:38.632Z,12.07
2019-03-03T03:38:18.401Z,16.90
2019-03-03T03:41:13.548Z,12.60
2019-03-03T03:44:05.532Z,18.03
2019-03-03T03:46:49.872Z,16.87
2019-03-03T03:49:30.761Z,16.60
2019-03-03T03:52:32.133Z,17.83
2019-03-03T03:55:40.481Z,17.97
2019-03-03T03:58:31.593Z,17.93
2019-03-03T04:01:24.060Z,19.23
2019-03-03T04:04:34.628Z,17.47
2019-03-03T04:07:11.921Z,16.40
2019-03-03T04:09:52.909Z,15.07
2019-03-03T04:12:36.760Z,18.73
2019-03-03T04:15:17.449Z,17.07
2019-03-03T04:17:58.788Z,23.03
2019-03-03T04:20:57.024Z,14.30
2019-03-03T04:23:46.755Z,19.07
2019-03-03T04:26:34.985Z,16.53
2019-03-03T04:29:33.329Z,16.07
2019-03-03T04:32:24.826Z,24.17
2019-03-03T04:35:15.805Z,15.50
2019-03-03T04:37:57.377Z,20.57
2019-03-03T04:40:45.837Z,13.40
2019-03-03T04:43:24.138Z,24.47
2019-03-03T04:46:25.609Z,13.67
2019-03-03T04:49:16.439Z,14.50
2019-03-03T04:51:58.433Z,10.33
2019-03-03T04:54:56.871Z,19.07
2019-03-03T04:57:43.053Z,17.57
2019-03-03T05:00:37.947Z,21.70
2019-03-03T05:03:38.209Z,16.87
2019-03-03T05:06:18.482Z,16.10
2019-03-03T05:08:59.938Z,15.33
2019-03-03T05:12:32.128Z,13.27
2019-03-03T05:15:26.883Z,17.40
2019-03-03T05:18:12.226Z,18.10
2019-03-03T05:20:49.948Z,16.83
2019-03-03T05:23:22.941Z,15.23
2019-03-03T05:25:56.080Z,16.50
2019-03-03T05:28:29.021Z,17.17
2019-03-03T05:31:01.743Z,17.27
2019-03-03T05:33:34.738Z,17.60
2019-03-03T05:36:07.806Z,16.97
2019-03-03T05:38:40.686Z,15.37
2019-03-03T05:41:13.564Z,12.03
2019-03-03T05:43:46.583Z,21.57
2019-03-03T05:46:19.342Z,20.20
2019-03-03T05:48:52.223Z,16.63
2019-03-03T05:51:25.274Z,16.20
2019-03-03T05:53:58.304Z,16.40
2019-03-03T05:56:31.283Z,20.43
2019-03-03T05:59:04.107Z,18.33
2019-03-03T06:01:37.268Z,13.67
2019-03-03T06:04:10.164Z,18.27
2019-03-03T06:06:43.895Z,21.53
2019-03-03T06:09:16.722Z,26.10
2019-03-03T06:11:49.702Z,21.57
2019-03-03T06:14:22.677Z,20.63
2019-03-03T06:16:55.685Z,19.70
2019-03-03T06:19:28.513Z,16.30
2019-03-03T06:22:01.313Z,18.07
2019-03-03T06:24:34.333Z,16.60
2019-03-03T06:27:07.368Z,19.83
2019-03-03T06:29:40.453Z,23.43
2019-03-03T06:32:13.300Z,21.30
2019-03-03T06:34:46.146Z,15.20
2019-03-03T06:37:18.874Z,14.73
2019-03-03T06:39:51.835Z,16.23
2019-03-03T06:42:24.697Z,18.07
2019-03-03T06:44:58.128Z,20.17
2019-03-03T06:47:31.032Z,17.37
2019-03-03T06:50:05.112Z,24.00
2019-03-03T06:52:38.188Z,14.93
2019-03-03T06:55:11.364Z,24.27
2019-03-03T06:57:44.103Z,22.73
2019-03-03T07:00:17.004Z,17.90
2019-03-03T07:02:50.070Z,20.87
2019-03-03T07:05:25.944Z,21.27
2019-03-03T07:07:58.736Z,18.33
2019-03-03T07:10:31.583Z,14.87
2019-03-03T07:13:04.383Z,24.10
2019-03-03T07:15:37.392Z,19.90
2019-03-03T07:18:10.436Z,22.80
2019-03-03T07:20:43.284Z,16.33
2019-03-03T07:23:16.063Z,22.70
2019-03-03T07:25:49.351Z,17.27
2019-03-03T07:28:22.184Z,23.27
2019-03-03T07:30:55.084Z,16.83
2019-03-03T07:33:32.669Z,17.17
2019-03-03T07:36:05.528Z,17.20
2019-03-03T07:38:38.399Z,16.37
2019-03-03T07:41:11.165Z,22.87
2019-03-03T07:43:44.194Z,18.80
2019-03-03T07:46:16.984Z,20.00
2019-03-03T07:48:50.138Z,24.80
2019-03-03T07:51:23.159Z,21.27
2019-03-03T07:53:56.170Z,15.37
2019-03-03T07:56:29.321Z,20.50
2019-03-03T07:59:02.455Z,20.43
2019-03-03T08:01:35.651Z,20.77
2019-03-03T08:04:08.866Z,22.83
2019-03-03T08:06:41.694Z,20.27
2019-03-03T08:09:14.771Z,21.77
2019-03-03T08:11:47.911Z,15.80
2019-03-03T08:14:21.005Z,20.40
2019-03-03T08:16:53.926Z,18.93
2019-03-03T08:19:26.942Z,19.90
2019-03-03T08:21:59.786Z,22.30
2019-03-03T08:24:32.821Z,17.53
2019-03-03T08:27:05.889Z,18.17
2019-03-03T08:29:38.850Z,17.67
2019-03-03T08:32:11.696Z,18.07
2019-03-03T08:34:44.686Z,22.17
2019-03-03T08:37:17.577Z,19.87
2019-03-03T08:39:50.572Z,17.37
2019-03-03T08:42:45.819Z,20.33
2019-03-03T08:45:28.405Z,20.70
2019-03-03T08:48:10.637Z,19.17
2019-03-03T08:50:49.615Z,14.33
2019-03-03T08:53:48.236Z,17.60
2019-03-03T08:56:43.500Z,14.63
2019-03-03T08:59:35.286Z,17.50
2019-03-03T09:02:23.812Z,14.90
2019-03-03T09:05:16.601Z,13.77
2019-03-03T09:08:09.804Z,13.97
2019-03-03T09:10:49.215Z,12.30
2019-03-03T09:13:46.381Z,8.93
2019-03-03T09:16:38.907Z,6.72
2019-03-03T09:19:30.177Z,7.10
2019-03-03T09:22:32.440Z,8.00
2019-03-03T09:25:27.430Z,10.07
2019-03-03T09:28:16.627Z,16.67
2019-03-03T09:31:08.885Z,8.57
2019-03-03T09:34:00.175Z,5.93
2019-03-03T09:36:55.560Z,7.63
2019-03-03T09:39:40.257Z,4.83
2019-03-03T09:42:31.292Z,9.80
2019-03-03T09:45:25.226Z,6.03
2019-03-03T09:48:17.542Z,9.47
2019-03-03T09:51:12.855Z,7.97
2019-03-03T09:54:12.517Z,6.83
2019-03-03T09:56:54.312Z,16.73
2019-03-03T09:59:47.186Z,5.97
2019-03-03T10:02:38.073Z,6.77
2019-03-03T10:05:31.787Z,9.30
2019-03-03T10:08:20.609Z,8.43
2019-03-03T10:11:02.197Z,7.93
2019-03-03T10:13:54.857Z,7.07
2019-03-03T10:16:40.012Z,11.30
2019-03-03T10:19:31.227Z,9.37
2019-03-03T10:22:38.930Z,8.57
2019-03-03T10:25:46.332Z,10.07
2019-03-03T10:28:35.918Z,10.50
2019-03-03T10:31:15.902Z,10.90
2019-03-03T10:33:59.187Z,9.13
2019-03-03T10:36:54.878Z,12.57
2019-03-03T10:40:05.592Z,10.43
2019-03-03T10:43:00.614Z,11.80
2019-03-03T10:45:51.533Z,9.37
2019-03-03T10:48:29.558Z,10.27
2019-03-03T10:51:38.592Z,7.63
2019-03-03T10:54:21.018Z,9.97
2019-03-03T10:57:13.171Z,7.93
2019-03-03T11:00:14.472Z,13.87
2019-03-03T11:03:15.882Z,12.83
2019-03-03T11:06:07.283Z,8.20
2019-03-03T11:09:14.954Z,8.33
2019-03-03T11:12:05.048Z,9.77
2019-03-03T11:15:18.536Z,7.53
2019-03-03T11:18:09.902Z,7.27
2019-03-03T11:21:05.157Z,6.07
2019-03-03T11:24:00.559Z,5.57
2019-03-03T11:27:00.144Z,7.80
2019-03-03T11:29:51.083Z,7.73
2019-03-03T11:32:31.767Z,8.80
2019-03-03T11:35:27.459Z,7.97
2019-03-03T11:38:23.045Z,6.00
2019-03-03T11:41:21.233Z,7.20
2019-03-03T11:44:03.950Z,4.63
2019-03-03T11:46:55.232Z,9.87
2019-03-03T11:49:36.537Z,8.37
2019-03-03T11:52:34.848Z,5.07
2019-03-03T11:55:20.769Z,13.30
2019-03-03T11:58:05.374Z,6.43
2019-03-03T12:00:57.696Z,9.27
2019-03-03T12:03:49.018Z,9.03
2019-03-03T12:06:47.453Z,10.20
2019-03-03T12:09:34.508Z,6.87
2019-03-03T12:12:45.238Z,11.77
2019-03-03T12:15:24.564Z,11.90
2019-03-03T12:19:19.993Z,8.63
2019-03-03T12:22:07.862Z,7.10
2019-03-03T12:24:55.324Z,9.17
2019-03-03T12:27:39.562Z,12.63
2019-03-03T12:30:25.677Z,12.17
2019-03-03T12:33:17.965Z,6.40
2019-03-03T12:36:05.495Z,9.23
2019-03-03T12:38:48.439Z,5.27
2019-03-03T12:41:33.433Z,6.23
2019-03-03T12:44:31.895Z,6.67
2019-03-03T12:47:12.063Z,7.40
2019-03-03T12:50:22.871Z,4.80
2019-03-03T12:53:23.968Z,4.53
2019-03-03T12:56:12.415Z,4.83
2019-03-03T12:59:00.865Z,5.47
2019-03-03T13:01:56.091Z,7.37
2019-03-03T13:04:47.219Z,3.13
2019-03-03T13:07:37.223Z,6.10
2019-03-03T13:10:36.394Z,8.03
2019-03-03T13:13:26.077Z,4.33
2019-03-03T13:16:18.571Z,4.33
2019-03-03T13:19:04.902Z,4.70
2019-03-03T13:21:56.000Z,5.17
2019-03-03T13:24:40.376Z,6.33
2019-03-03T13:27:44.779Z,3.70
2019-03-03T13:30:39.687Z,4.33
2019-03-03T13:33:30.943Z,5.30
2019-03-03T13:36:26.864Z,7.30
2019-03-03T13:39:28.236Z,6.50
2019-03-03T13:42:26.344Z,4.87
2019-03-03T13:44:59.634Z,4.25
2019-03-03T13:47:32.416Z,3.97
2019-03-03T13:50:07.090Z,6.12
2019-03-03T13:52:40.015Z,6.37
2019-03-03T13:55:14.426Z,4.23
2019-03-03T13:57:47.539Z,4.78
2019-03-03T14:00:21.431Z,4.33
2019-03-03T14:02:54.727Z,2.98
2019-03-03T14:05:28.934Z,5.75
2019-03-03T14:08:01.849Z,3.27
2019-03-03T14:10:34.806Z,5.80
2019-03-03T14:13:07.914Z,4.00
2019-03-03T14:15:41.144Z,3.17
2019-03-03T14:18:33.490Z,3.55
2019-03-03T14:21:06.427Z,4.47
2019-03-03T14:23:39.536Z,6.30
2019-03-03T14:26:12.900Z,4.25
2019-03-03T14:28:45.914Z,6.55
2019-03-03T14:31:18.801Z,4.22
2019-03-03T14:33:51.796Z,3.92
2019-03-03T14:36:24.957Z,3.00
2019-03-03T14:38:57.809Z,5.20
2019-03-03T14:41:30.711Z,3.22
2019-03-03T14:44:05.502Z,4.85
2019-03-03T14:46:38.316Z,4.45
2019-03-03T14:49:11.116Z,4.00
2019-03-03T14:51:45.130Z,4.55
2019-03-03T14:54:18.475Z,3.52
2019-03-03T14:56:51.532Z,6.25
2019-03-03T14:59:25.328Z,3.98
2019-03-03T15:01:58.292Z,6.55
2019-03-03T15:04:31.285Z,4.67
2019-03-03T15:07:04.254Z,6.17
2019-03-03T15:09:37.110Z,6.28
2019-03-03T15:12:10.382Z,6.37
2019-03-03T15:14:43.192Z,5.20
2019-03-03T15:17:16.234Z,8.67
2019-03-03T15:19:49.186Z,5.03
2019-03-03T15:22:22.201Z,6.42
2019-03-03T15:24:55.956Z,4.95
2019-03-03T15:27:29.836Z,20.15
2019-03-03T15:30:03.166Z,12.80
2019-03-03T15:32:36.366Z,8.43
2019-03-03T15:35:09.483Z,5.47
2019-03-03T15:37:42.327Z,7.65
2019-03-03T15:40:17.811Z,9.43
2019-03-03T15:42:50.747Z,9.45
2019-03-03T15:45:23.966Z,8.08
2019-03-03T15:47:56.976Z,8.40
2019-03-03T15:50:29.961Z,8.65
2019-03-03T15:53:03.187Z,9.63
2019-03-03T15:55:36.432Z,10.15
2019-03-03T15:58:09.189Z,8.75
2019-03-03T16:00:42.347Z,9.15
2019-03-03T16:03:15.436Z,12.88
2019-03-03T16:05:49.000Z,9.03
2019-03-03T16:08:22.055Z,8.60
2019-03-03T16:10:55.201Z,14.65
2019-03-03T16:13:28.158Z,13.20
2019-03-03T16:16:01.003Z,12.50
2019-03-03T16:18:34.946Z,16.82
2019-03-03T16:21:08.983Z,16.30
2019-03-03T16:23:42.142Z,21.65
2019-03-03T16:26:17.366Z,15.10
2019-03-03T16:28:50.252Z,12.43
2019-03-03T16:31:24.230Z,20.20
2019-03-03T16:33:57.090Z,12.58
2019-03-03T16:36:30.096Z,11.25
2019-03-03T16:39:03.907Z,11.18
2019-03-03T16:41:38.817Z,14.25
2019-03-03T16:44:11.767Z,14.98
2019-03-03T16:46:44.712Z,16.27
2019-03-03T16:49:17.742Z,11.70
2019-03-03T16:51:50.587Z,14.47
2019-03-03T16:54:23.469Z,11.25
2019-03-03T16:56:56.242Z,10.38
2019-03-03T16:59:29.192Z,14.78
2019-03-03T17:02:02.146Z,15.50
2019-03-03T17:04:35.334Z,12.37
2019-03-03T17:07:08.593Z,9.90
2019-03-03T17:09:41.447Z,17.77
2019-03-03T17:12:14.433Z,15.85
2019-03-03T17:14:47.356Z,21.60
2019-03-03T17:17:20.601Z,16.77
2019-03-03T17:19:53.524Z,17.93
2019-03-03T17:22:26.572Z,14.98
2019-03-03T17:25:20.027Z,16.15
2019-03-03T17:27:53.113Z,17.87
2019-03-03T17:30:26.186Z,16.05
2019-03-03T17:32:59.343Z,20.00
2019-03-03T17:35:32.147Z,17.95
2019-03-03T17:38:05.058Z,12.85
2019-03-03T17:40:38.218Z,20.95
2019-03-03T17:43:11.154Z,17.20
2019-03-03T17:45:44.055Z,18.15
2019-03-03T17:48:16.867Z,15.10
2019-03-03T17:50:49.757Z,14.68
2019-03-03T17:53:22.575Z,18.27
2019-03-03T17:55:55.924Z,16.40
2019-03-03T17:58:28.873Z,14.60
2019-03-03T18:01:02.365Z,20.05
2019-03-03T18:03:35.859Z,17.52
2019-03-03T18:06:08.971Z,12.43
2019-03-03T18:08:42.039Z,17.92
2019-03-03T18:11:14.950Z,14.30
2019-03-03T18:13:47.903Z,16.12
2019-03-03T18:16:21.014Z,19.42
2019-03-03T18:18:53.880Z,15.65
2019-03-03T18:21:26.988Z,16.75
2019-03-03T18:24:00.171Z,19.20
2019-03-03T18:26:33.267Z,14.18
2019-03-03T18:29:06.308Z,12.33
2019-03-03T18:31:39.668Z,12.18
2019-03-03T18:34:13.222Z,14.68
2019-03-03T18:36:46.075Z,15.80
2019-03-03T18:39:18.998Z,11.97
2019-03-03T18:41:53.038Z,19.15
2019-03-03T18:44:26.154Z,17.48
2019-03-03T18:46:59.103Z,12.65
2019-03-03T18:49:32.275Z,17.40
2019-03-03T18:52:05.200Z,13.00
2019-03-03T18:54:38.974Z,15.53
2019-03-03T18:57:12.123Z,19.92
2019-03-03T18:59:45.139Z,17.23
2019-03-03T19:02:18.438Z,17.05
2019-03-03T19:04:51.309Z,15.03
2019-03-03T19:07:24.264Z,16.45
2019-03-03T19:09:57.464Z,15.38
2019-03-03T19:12:30.579Z,13.93
2019-03-03T19:15:04.766Z,16.05
2019-03-03T19:17:39.329Z,16.25
2019-03-03T19:20:13.644Z,16.73
2019-03-03T19:22:47.034Z,12.10
2019-03-03T19:25:19.931Z,13.65
2019-03-03T19:27:53.000Z,15.93
2019-03-03T19:30:26.314Z,14.55
2019-03-03T19:33:21.603Z,16.10
2019-03-03T19:35:54.542Z,12.25
2019-03-03T19:38:29.877Z,13.88
2019-03-03T19:41:02.751Z,17.77
2019-03-03T19:43:35.884Z,17.87
2019-03-03T19:46:10.000Z,16.45
2019-03-03T19:48:43.046Z,15.03
2019-03-03T19:51:16.054Z,20.20
2019-03-03T19:53:48.989Z,15.50
2019-03-03T19:56:21.965Z,14.03
2019-03-03T19:58:55.211Z,13.75
2019-03-03T20:01:28.236Z,12.63
2019-03-03T20:04:01.241Z,15.48
2019-03-03T20:06:35.222Z,17.23
2019-03-03T20:09:08.378Z,18.25
2019-03-03T20:11:45.506Z,14.23
2019-03-03T20:14:18.212Z,14.60
2019-03-03T20:16:51.419Z,17.42
2019-03-03T20:19:24.666Z,16.37
2019-03-03T20:21:57.575Z,14.40
2019-03-03T20:24:30.567Z,14.45
2019-03-03T20:27:03.566Z,14.98
2019-03-03T20:29:36.656Z,11.10
2019-03-03T20:32:09.531Z,8.58
2019-03-03T20:34:42.610Z,8.15
2019-03-03T20:37:16.577Z,11.48
2019-03-03T20:39:49.532Z,9.53
2019-03-03T20:42:22.465Z,13.08
2019-03-03T20:44:55.552Z,7.03
2019-03-03T20:47:28.632Z,9.73
2019-03-03T20:50:01.690Z,12.13
2019-03-03T20:52:35.201Z,7.87
2019-03-03T20:55:10.376Z,8.38
2019-03-03T20:57:43.376Z,7.58
2019-03-03T21:00:21.016Z,9.38
2019-03-03T21:02:54.624Z,6.45
2019-03-03T21:05:27.738Z,7.92
2019-03-03T21:08:00.931Z,10.55
2019-03-03T21:10:34.161Z,5.87
2019-03-03T21:13:08.412Z,8.83
2019-03-03T21:15:41.775Z,6.42
2019-03-03T21:18:14.827Z,9.53
2019-03-03T21:20:47.731Z,6.90
2019-03-03T21:23:20.711Z,7.53
2019-03-03T21:25:53.560Z,5.15
2019-03-03T21:28:26.423Z,5.62
2019-03-03T21:30:59.507Z,5.67
2019-03-03T21:33:32.443Z,6.80
2019-03-03T21:36:05.394Z,7.42
2019-03-03T21:38:39.386Z,7.47
2019-03-03T21:41:13.114Z,6.20
2019-03-03T21:43:46.132Z,7.03
2019-03-03T21:46:19.206Z,6.17
2019-03-03T21:48:52.333Z,7.37
2019-03-03T21:51:25.598Z,7.47
2019-03-03T21:53:58.601Z,7.22
2019-03-03T21:56:31.357Z,6.95
2019-03-03T21:59:04.782Z,6.62
2019-03-03T22:01:39.071Z,6.47
2019-03-03T22:04:12.072Z,5.95
2019-03-03T22:06:44.866Z,14.95
2019-03-03T22:09:18.791Z,7.65
2019-03-03T22:11:51.836Z,7.72
2019-03-03T22:14:24.874Z,6.92
2019-03-03T22:16:57.822Z,6.37
2019-03-03T22:19:30.833Z,4.67
2019-03-03T22:22:04.097Z,6.47
2019-03-03T22:24:37.006Z,8.53
2019-03-03T22:27:10.603Z,5.93
2019-03-03T22:29:43.535Z,7.30
2019-03-03T22:32:17.467Z,6.20
2019-03-03T22:34:50.408Z,7.95
2019-03-03T22:37:23.322Z,5.60
2019-03-03T22:39:56.389Z,8.08
2019-03-03T22:42:29.588Z,9.68
2019-03-03T22:45:03.748Z,10.30
2019-03-03T22:47:36.715Z,5.65
2019-03-03T22:50:10.763Z,10.25
2019-03-03T22:52:43.658Z,8.15
2019-03-03T22:55:17.358Z,9.75
2019-03-03T22:57:50.539Z,9.70
2019-03-03T23:00:50.008Z,6.50
2019-03-03T23:03:56.127Z,8.45
2019-03-03T23:06:33.537Z,11.53
2019-03-03T23:09:48.330Z,6.97
2019-03-03T23:12:38.798Z,11.55
2019-03-03T23:15:29.192Z,10.60
2019-03-03T23:18:50.002Z,6.15
2019-03-03T23:22:23.050Z,8.18
2019-03-03T23:25:32.799Z,9.90
2019-03-03T23:28:07.431Z,7.55
2019-03-03T23:30:40.595Z,13.55
2019-03-03T23:33:13.403Z,8.53
2019-03-03T23:35:46.499Z,8.50
2019-03-03T23:38:19.393Z,9.08
2019-03-03T23:40:52.442Z,8.55
2019-03-03T23:43:25.527Z,11.33
2019-03-03T23:46:00.039Z,8.95
2019-03-03T23:48:32.907Z,13.30
2019-03-03T23:51:05.815Z,11.25
2019-03-03T23:53:39.110Z,12.50
2019-03-03T23:56:12.179Z,9.13
2019-03-03T23:58:45.263Z,8.70
